createdAt,value
2023-03-05T00:04:31.132Z,2.80
2023-03-05T00:09:34.936Z,2.80
2023-03-05T00:14:38.235Z,2.80
2023-03-05T00:19:39.983Z,2.81
2023-03-05T00:24:41.860Z,2.77
2023-03-05T00:29:43.653Z,2.78
2023-03-05T00:34:45.347Z,2.81
2023-03-05T00:39:47.159Z,2.82
2023-03-05T00:44:48.844Z,2.85
2023-03-05T00:49:50.633Z,2.84
2023-03-05T00:54:52.490Z,2.85
2023-03-05T00:59:54.172Z,2.88
2023-03-05T01:04:55.855Z,2.92
2023-03-05T01:09:57.833Z,2.87
2023-03-05T01:14:59.508Z,2.82
2023-03-05T01:20:01.270Z,2.80
2023-03-05T01:25:03.018Z,2.85
2023-03-05T01:30:05.936Z,2.82
2023-03-05T01:35:08.898Z,2.84
2023-03-05T01:40:13.037Z,2.76
2023-03-05T01:45:18.460Z,2.72
2023-03-05T01:50:25.601Z,2.68
2023-03-05T01:55:29.479Z,2.68
2023-03-05T02:00:35.586Z,2.75
2023-03-05T02:05:39.134Z,2.68
2023-03-05T02:10:46.161Z,2.62
2023-03-05T02:15:49.820Z,2.64
2023-03-05T02:20:59.505Z,2.66
2023-03-05T02:26:01.172Z,2.67
2023-03-05T02:31:09.818Z,2.54
2023-03-05T02:36:12.119Z,2.57
2023-03-05T02:41:15.060Z,2.60
2023-03-05T02:46:17.710Z,2.65
2023-03-05T02:51:19.623Z,2.70
2023-03-05T02:56:22.812Z,2.68
2023-03-05T03:01:24.595Z,2.75
2023-03-05T03:06:26.691Z,2.84
2023-03-05T03:11:28.463Z,2.81
2023-03-05T03:16:30.632Z,2.79
2023-03-05T03:21:32.325Z,2.76
2023-03-05T03:26:33.976Z,2.74
2023-03-05T03:31:35.654Z,2.79
2023-03-05T03:36:37.367Z,2.82
2023-03-05T03:41:43.106Z,2.83
2023-03-05T03:46:46.553Z,2.83
2023-03-05T03:51:49.398Z,2.81
2023-03-05T03:56:51.267Z,2.85
2023-03-05T04:01:52.919Z,2.85
2023-03-05T04:06:54.696Z,2.86
2023-03-05T04:11:56.354Z,2.88
2023-03-05T04:16:58.126Z,2.93
2023-03-05T04:21:59.698Z,2.94
2023-03-05T04:27:01.436Z,2.88
2023-03-05T04:32:03.425Z,2.82
2023-03-05T04:37:05.296Z,2.78
2023-03-05T04:42:07.108Z,2.76
2023-03-05T04:47:09.003Z,2.81
2023-03-05T04:52:11.993Z,2.69
2023-03-05T04:57:13.697Z,2.74
2023-03-05T05:02:15.495Z,2.72
2023-03-05T05:07:17.206Z,2.75
2023-03-05T05:12:19.461Z,2.77
2023-03-05T05:17:21.263Z,2.81
2023-03-05T05:22:23.407Z,2.89
2023-03-05T05:27:25.164Z,2.85
2023-03-05T05:32:27.171Z,2.87
2023-03-05T05:37:29.544Z,2.82
2023-03-05T05:42:31.696Z,2.80
2023-03-05T05:47:33.421Z,2.82
2023-03-05T05:52:35.005Z,2.84
2023-03-05T05:57:36.733Z,2.90
2023-03-05T06:02:42.829Z,2.94
2023-03-05T06:07:44.491Z,2.89
2023-03-05T06:12:47.977Z,2.90
2023-03-05T06:17:49.656Z,2.87
2023-03-05T06:22:51.488Z,2.95
2023-03-05T06:27:53.160Z,2.97
2023-03-05T06:32:55.027Z,3.05
2023-03-05T06:37:56.760Z,3.05
2023-03-05T06:42:58.676Z,3.10
2023-03-05T06:48:00.519Z,3.10
2023-03-05T06:53:02.744Z,3.11
2023-03-05T06:58:04.399Z,3.19
2023-03-05T07:03:06.175Z,3.24
2023-03-05T07:08:08.552Z,3.18
2023-03-05T07:13:10.563Z,3.06
2023-03-05T07:18:12.284Z,2.96
2023-03-05T07:23:14.072Z,2.92
2023-03-05T07:28:15.924Z,2.88
2023-03-05T07:33:17.732Z,2.91
2023-03-05T07:38:19.911Z,3.03
2023-03-05T07:43:21.606Z,3.08
2023-03-05T07:48:24.572Z,3.18
2023-03-05T07:53:26.450Z,3.27
2023-03-05T07:58:28.175Z,3.32
2023-03-05T08:03:29.758Z,3.34
2023-03-05T08:08:31.518Z,3.32
2023-03-05T08:13:33.714Z,3.33
2023-03-05T08:18:35.787Z,3.37
2023-03-05T08:23:37.460Z,3.44
2023-03-05T08:28:39.221Z,3.57
2023-03-05T08:33:41.281Z,3.56
2023-03-05T08:38:44.612Z,3.61
2023-03-05T08:43:46.461Z,3.63
2023-03-05T08:48:48.111Z,3.76
2023-03-05T08:53:49.944Z,3.76
2023-03-05T08:58:53.027Z,3.82
2023-03-05T09:03:54.949Z,3.83
2023-03-05T09:08:56.675Z,3.85
2023-03-05T09:13:58.398Z,3.95
2023-03-05T09:19:00.176Z,4.05
2023-03-05T09:24:02.035Z,4.01
2023-03-05T09:29:03.788Z,3.98
2023-03-05T09:34:08.182Z,4.06
2023-03-05T09:39:10.034Z,4.00
2023-03-05T09:44:35.356Z,4.00
2023-03-05T09:50:24.136Z,4.12
2023-03-05T09:55:40.509Z,4.11
2023-03-05T10:00:49.261Z,4.04
2023-03-05T10:05:59.716Z,4.07
2023-03-05T10:11:06.973Z,4.20
2023-03-05T10:16:51.384Z,4.30
2023-03-05T10:22:13.012Z,4.38
2023-03-05T10:27:21.113Z,4.39
2023-03-05T10:32:45.675Z,4.37
2023-03-05T10:37:54.023Z,4.44
2023-03-05T10:43:12.950Z,4.53
2023-03-05T10:48:28.332Z,4.49
2023-03-05T10:53:36.582Z,4.49
2023-03-05T10:58:38.264Z,4.52
2023-03-05T11:04:24.984Z,4.46
2023-03-05T11:09:29.458Z,4.48
2023-03-05T11:14:33.513Z,4.52
2023-03-05T11:19:35.363Z,4.47
2023-03-05T11:24:37.549Z,4.55
2023-03-05T11:29:48.602Z,4.57
2023-03-05T11:34:51.768Z,4.60
2023-03-05T11:40:16.039Z,4.50
2023-03-05T11:45:19.144Z,4.43
2023-03-05T11:50:25.363Z,4.40
2023-03-05T11:55:48.588Z,4.54
2023-03-05T12:00:50.899Z,4.56
2023-03-05T12:06:12.886Z,4.61
2023-03-05T12:11:26.349Z,4.58
2023-03-05T12:16:30.838Z,4.66
2023-03-05T12:21:41.754Z,4.67
2023-03-05T12:26:53.543Z,4.68
2023-03-05T12:31:55.766Z,4.71
2023-03-05T12:36:57.484Z,4.67
2023-03-05T12:41:59.134Z,4.69
2023-03-05T12:47:19.136Z,4.73
2023-03-05T12:52:26.412Z,4.70
2023-03-05T12:57:29.983Z,4.75
2023-03-05T13:02:36.647Z,4.72
2023-03-05T13:07:38.520Z,4.78
2023-03-05T13:12:40.449Z,4.84
2023-03-05T13:17:53.009Z,4.75
2023-03-05T13:23:04.903Z,4.69
2023-03-05T13:28:13.014Z,4.62
2023-03-05T13:33:20.218Z,4.61
2023-03-05T13:38:36.623Z,4.65
2023-03-05T13:43:54.724Z,4.70
2023-03-05T13:48:58.367Z,4.64
2023-03-05T13:54:00.131Z,4.67
2023-03-05T13:59:01.965Z,4.66
2023-03-05T14:04:08.255Z,4.73
2023-03-05T14:09:25.062Z,4.77
2023-03-05T14:14:27.911Z,4.73
2023-03-05T14:19:39.364Z,4.60
2023-03-05T14:24:51.868Z,4.56
2023-03-05T14:29:53.888Z,4.56
2023-03-05T14:34:59.421Z,4.61
2023-03-05T14:40:32.494Z,4.51
2023-03-05T14:45:37.397Z,4.47
2023-03-05T14:50:51.598Z,4.53
2023-03-05T14:55:57.690Z,4.60
2023-03-05T15:00:59.421Z,4.58
2023-03-05T15:06:01.687Z,4.55
2023-03-05T15:11:03.859Z,4.48
2023-03-05T15:16:06.919Z,4.50
2023-03-05T15:21:08.960Z,4.51
2023-03-05T15:26:14.091Z,4.48
2023-03-05T15:31:17.518Z,4.46
2023-03-05T15:36:19.145Z,4.50
2023-03-05T15:41:22.202Z,4.47
2023-03-05T15:46:23.995Z,4.46
2023-03-05T15:51:25.674Z,4.44
2023-03-05T15:56:27.509Z,4.42
2023-03-05T16:01:29.199Z,4.37
2023-03-05T16:06:31.939Z,4.32
2023-03-05T16:11:37.496Z,4.28
2023-03-05T16:16:39.483Z,4.26
2023-03-05T16:21:41.335Z,4.23
2023-03-05T16:26:43.218Z,4.21
2023-03-05T16:31:45.410Z,4.22
2023-03-05T16:36:50.786Z,4.18
2023-03-05T16:41:53.109Z,4.17
2023-03-05T16:46:56.320Z,4.12
2023-03-05T16:52:01.337Z,4.11
2023-03-05T16:57:09.292Z,4.14
2023-03-05T17:02:13.042Z,4.20
2023-03-05T17:07:14.742Z,4.22
2023-03-05T17:12:16.337Z,4.31
2023-03-05T17:17:18.054Z,4.30
2023-03-05T17:22:19.839Z,4.36
2023-03-05T17:27:23.360Z,4.37
2023-03-05T17:32:25.178Z,4.43
2023-03-05T17:37:27.468Z,4.44
2023-03-05T17:42:29.156Z,4.47
2023-03-05T17:47:33.074Z,4.49
2023-03-05T17:52:38.229Z,4.52
2023-03-05T17:57:41.509Z,4.55
2023-03-05T18:02:43.507Z,4.53
2023-03-05T18:07:45.484Z,4.57
2023-03-05T18:12:48.100Z,4.52
2023-03-05T18:17:50.370Z,4.50
2023-03-05T18:22:52.452Z,4.49
2023-03-05T18:27:54.194Z,4.53
2023-03-05T18:32:56.107Z,4.49
2023-03-05T18:37:57.796Z,4.50
2023-03-05T18:43:01.424Z,4.46
2023-03-05T18:48:03.579Z,4.36
2023-03-05T18:53:05.333Z,4.24
2023-03-05T18:58:07.062Z,4.29
2023-03-05T19:03:08.981Z,4.24
2023-03-05T19:08:11.249Z,4.13
2023-03-05T19:13:28.685Z,4.13
2023-03-05T19:18:33.713Z,4.11
2023-03-05T19:23:35.597Z,4.08
2023-03-05T19:28:37.234Z,3.97
2023-03-05T19:33:38.935Z,4.02
2023-03-05T19:38:40.828Z,4.05
2023-03-05T19:43:42.595Z,4.06
2023-03-05T19:48:44.490Z,4.06
2023-03-05T19:53:47.591Z,4.04
2023-03-05T19:58:49.321Z,4.00
2023-03-05T20:03:53.857Z,4.04
2023-03-05T20:08:56.686Z,4.14
2023-03-05T20:13:58.699Z,4.15
2023-03-05T20:19:02.956Z,3.93
2023-03-05T20:24:09.925Z,3.86
2023-03-05T20:29:15.437Z,3.92
2023-03-05T20:34:19.773Z,3.84
2023-03-05T20:39:21.530Z,3.79
2023-03-05T20:44:23.364Z,3.69
2023-03-05T20:49:25.341Z,3.71
2023-03-05T20:54:28.056Z,3.72
2023-03-05T20:59:29.757Z,3.68
2023-03-05T21:04:31.521Z,3.67
2023-03-05T21:09:33.257Z,3.60
2023-03-05T21:14:37.933Z,3.58
2023-03-05T21:19:39.888Z,3.67
2023-03-05T21:25:01.967Z,3.80
2023-03-05T21:30:04.431Z,3.89
2023-03-05T21:35:06.674Z,3.86
2023-03-05T21:40:17.688Z,3.82
2023-03-05T21:45:22.838Z,3.81
2023-03-05T21:50:25.879Z,3.88
2023-03-05T21:55:32.962Z,3.98
2023-03-05T22:00:34.720Z,4.02
2023-03-05T22:05:36.512Z,3.98
2023-03-05T22:10:40.046Z,3.93
2023-03-05T22:15:46.145Z,4.02
2023-03-05T22:20:48.226Z,4.05
2023-03-05T22:25:57.130Z,3.99
2023-03-05T22:30:59.095Z,4.01
2023-03-05T22:36:07.519Z,4.05
2023-03-05T22:41:11.493Z,4.02
2023-03-05T22:46:19.749Z,4.02
2023-03-05T22:51:21.508Z,4.04
2023-03-05T22:56:23.365Z,3.93
2023-03-05T23:01:26.458Z,3.94
2023-03-05T23:06:28.155Z,3.97
2023-03-05T23:11:30.100Z,3.95
2023-03-05T23:16:31.843Z,4.03
2023-03-05T23:21:33.563Z,4.03
2023-03-05T23:26:35.288Z,4.00
2023-03-05T23:31:37.041Z,3.81
2023-03-05T23:36:39.022Z,3.76
2023-03-05T23:41:40.724Z,3.54
2023-03-05T23:46:42.396Z,3.59
2023-03-05T23:51:44.089Z,3.55
2023-03-05T23:56:45.845Z,3.43
